Time;durP1;ratioP1;P1;durP2;ratioP2;P2;SDS_P1;SDS_P2;PMS_P1;PMS_P2;Temp;Humidity;BMP_temperature;BMP_pressure;BME280_temperature;BME280_humidity;BME280_pressure;Samples;Min_cycle;Max_cycle;Signal;HPM_P1;HPM_P2
2023/03/03 00:02:02;;;;;;;26.45;15.25;;;5.30;93.70;;;;;;5075175;28;20028;-74
2023/03/03 00:04:43;;;;;;;36.38;19.80;;;5.30;93.70;;;;;;5071179;28;20094;-78
2023/03/03 00:07:10;;;;;;;29.80;16.15;;;5.20;93.80;;;;;;5069284;28;20049;-75
2023/03/03 00:09:36;;;;;;;37.65;20.85;;;5.20;93.70;;;;;;5074283;28;20035;-74
2023/03/03 00:12:23;;;;;;;13.43;7.78;;;5.10;93.90;;;;;;5072393;28;20028;-73
2023/03/03 00:14:49;;;;;;;31.77;18.35;;;5.20;94.50;;;;;;5074454;28;20516;-73
2023/03/03 00:17:27;;;;;;;37.90;21.35;;;5.20;94.40;;;;;;5076682;28;20021;-74
2023/03/03 00:19:52;;;;;;;43.28;24.85;;;5.10;94.30;;;;;;5071242;28;20122;-74
2023/03/03 00:22:29;;;;;;;20.77;11.93;;;5.10;94.10;;;;;;5084948;28;20494;-75
2023/03/03 00:25:00;;;;;;;16.30;9.57;;;5.10;94.20;;;;;;5073068;28;20023;-73
2023/03/03 00:27:37;;;;;;;13.45;7.20;;;5.10;94.40;;;;;;5076750;28;20494;-73
2023/03/03 00:30:18;;;;;;;23.70;13.25;;;5.10;94.70;;;;;;5071386;28;20024;-74
2023/03/03 00:32:51;;;;;;;20.55;10.95;;;5.20;95.00;;;;;;5076178;28;20055;-75
2023/03/03 00:35:38;;;;;;;28.98;16.50;;;5.10;94.80;;;;;;5073839;28;20024;-74
2023/03/03 00:38:15;;;;;;;16.13;8.90;;;5.00;94.80;;;;;;5075032;28;20059;-75
2023/03/03 00:40:41;;;;;;;28.50;17.02;;;5.00;94.90;;;;;;5080767;28;20485;-74
2023/03/03 00:43:27;;;;;;;27.80;15.90;;;5.00;94.80;;;;;;5075833;28;20021;-74
2023/03/03 00:45:57;;;;;;;44.50;23.38;;;5.00;94.70;;;;;;5070939;28;20434;-75
2023/03/03 00:48:36;;;;;;;39.43;22.57;;;4.90;94.60;;;;;;5071323;28;20032;-74
2023/03/03 00:51:15;;;;;;;26.15;15.60;;;4.90;94.80;;;;;;5071823;28;20326;-73
2023/03/03 00:53:41;;;;;;;42.05;23.58;;;4.80;94.70;;;;;;5069132;28;20024;-74
2023/03/03 00:56:07;;;;;;;47.97;25.23;;;4.80;94.80;;;;;;5075960;28;20025;-75
2023/03/03 00:58:32;;;;;;;41.83;23.63;;;4.80;94.60;;;;;;5074749;28;20035;-74
2023/03/03 01:00:58;;;;;;;42.67;21.92;;;4.80;94.60;;;;;;5084946;28;20032;-74
2023/03/03 01:03:25;;;;;;;31.52;18.75;;;4.80;94.60;;;;;;5069756;28;20028;-74
2023/03/03 01:05:52;;;;;;;23.85;12.93;;;4.70;94.50;;;;;;5078280;28;20020;-75
2023/03/03 01:08:19;;;;;;;15.27;8.02;;;4.80;94.90;;;;;;5076173;28;20047;-75
2023/03/03 01:10:49;;;;;;;32.35;18.95;;;4.80;95.20;;;;;;5078030;28;20028;-73
2023/03/03 01:13:16;;;;;;;19.98;11.73;;;4.70;95.10;;;;;;5073733;28;20020;-74
2023/03/03 01:15:42;;;;;;;24.48;13.05;;;4.60;95.30;;;;;;5068630;28;20044;-74
2023/03/03 01:18:12;;;;;;;37.80;20.15;;;4.60;95.30;;;;;;5073114;28;20078;-74
2023/03/03 01:20:38;;;;;;;14.07;7.57;;;4.60;95.10;;;;;;5069784;28;20529;-74
2023/03/03 01:23:04;;;;;;;32.60;16.05;;;4.60;95.60;;;;;;5075559;28;20478;-74
2023/03/03 01:25:30;;;;;;;10.90;6.38;;;4.50;95.20;;;;;;5073793;28;20040;-73
2023/03/03 01:27:56;;;;;;;26.42;13.88;;;4.60;95.60;;;;;;5070985;28;20044;-73
2023/03/03 01:30:22;;;;;;;24.67;14.30;;;4.60;95.70;;;;;;5076486;28;20243;-74
2023/03/03 01:32:48;;;;;;;22.92;13.30;;;4.50;95.40;;;;;;5075989;28;20115;-73
2023/03/03 01:35:14;;;;;;;22.15;11.80;;;4.60;95.70;;;;;;5079470;28;20426;-74
2023/03/03 01:37:39;;;;;;;21.33;12.10;;;4.60;95.70;;;;;;5074166;28;20038;-74
2023/03/03 01:40:11;;;;;;;26.08;14.18;;;4.70;95.60;;;;;;5075085;28;20100;-75
2023/03/03 01:42:37;;;;;;;29.17;16.00;;;4.70;95.30;;;;;;5078043;28;20113;-75
2023/03/03 01:45:23;;;;;;;32.85;18.35;;;4.80;95.40;;;;;;5071569;28;20038;-73
2023/03/03 01:47:57;;;;;;;28.67;16.77;;;4.70;95.10;;;;;;5074365;28;20054;-74
2023/03/03 01:50:50;;;;;;;28.13;16.45;;;4.70;95.10;;;;;;5077852;28;20033;-74
2023/03/03 01:53:21;;;;;;;39.45;22.67;;;4.70;95.00;;;;;;5072549;28;20190;-73
2023/03/03 01:55:48;;;;;;;31.65;15.25;;;4.60;94.80;;;;;;5077091;28;20021;-74
2023/03/03 01:58:23;;;;;;;27.30;15.93;;;4.60;94.80;;;;;;5077934;28;20021;-74
2023/03/03 02:00:52;;;;;;;31.80;18.35;;;4.50;94.90;;;;;;5072902;28;20032;-74
2023/03/03 02:03:23;;;;;;;30.67;17.23;;;4.50;95.00;;;;;;5075474;28;20036;-73
2023/03/03 02:05:51;;;;;;;33.42;18.95;;;4.50;94.90;;;;;;5078275;28;20021;-72
2023/03/03 02:08:21;;;;;;;36.55;20.35;;;4.50;94.80;;;;;;5075463;28;20056;-74
2023/03/03 02:10:47;;;;;;;30.80;17.58;;;4.50;94.70;;;;;;5072469;28;20024;-73
2023/03/03 02:13:14;;;;;;;33.88;20.02;;;4.50;94.70;;;;;;5077105;28;20026;-72
2023/03/03 02:15:40;;;;;;;40.17;22.65;;;4.50;94.80;;;;;;5070788;28;20067;-73
2023/03/03 02:18:11;;;;;;;29.00;17.17;;;4.60;94.70;;;;;;5072532;28;20398;-73
2023/03/03 02:21:08;;;;;;;33.58;19.63;;;4.60;94.60;;;;;;5072112;28;20025;-75
2023/03/03 02:23:45;;;;;;;39.03;20.05;;;4.60;94.60;;;;;;5072509;28;20048;-75
2023/03/03 02:26:15;;;;;;;27.63;15.43;;;4.60;94.50;;;;;;5072563;28;20085;-74
2023/03/03 02:28:41;;;;;;;39.95;21.77;;;4.70;94.80;;;;;;5078419;28;20040;-74
2023/03/03 02:31:12;;;;;;;35.65;20.60;;;4.60;94.60;;;;;;5073323;28;20063;-75
2023/03/03 02:33:39;;;;;;;31.08;17.05;;;4.60;94.80;;;;;;5077335;28;20166;-75
2023/03/03 02:36:05;;;;;;;21.48;11.30;;;4.60;94.70;;;;;;5073556;28;20024;-74
2023/03/03 02:38:57;;;;;;;37.67;20.58;;;4.70;95.00;;;;;;5075109;28;20395;-73
2023/03/03 02:41:32;;;;;;;18.95;9.90;;;4.70;94.80;;;;;;5078434;28;20031;-72
2023/03/03 02:44:15;;;;;;;14.05;7.60;;;4.60;94.90;;;;;;5073637;28;20157;-74
2023/03/03 02:46:47;;;;;;;16.70;8.40;;;4.60;95.30;;;;;;5076407;28;20032;-74
2023/03/03 02:49:17;;;;;;;25.25;13.95;;;4.60;95.30;;;;;;5074201;28;20123;-73
2023/03/03 02:51:43;;;;;;;;;;;4.60;95.40;;;;;;5080563;28;20024;-74
2023/03/03 02:54:10;;;;;;;10.75;4.88;;;4.60;95.40;;;;;;5076094;28;19908;-75
2023/03/03 02:56:36;;;;;;;9.25;4.43;;;4.60;95.50;;;;;;5076302;28;20035;-75
2023/03/03 02:59:03;;;;;;;15.52;8.13;;;4.60;95.70;;;;;;5081318;28;20488;-74
2023/03/03 03:01:30;;;;;;;25.88;14.10;;;4.60;95.70;;;;;;5075952;28;20056;-73
2023/03/03 03:03:56;;;;;;;29.60;15.23;;;4.60;95.60;;;;;;5080022;28;20032;-74
2023/03/03 03:06:22;;;;;;;28.20;15.35;;;4.60;95.50;;;;;;5079635;28;20028;-73
2023/03/03 03:08:48;;;;;;;30.33;17.23;;;4.60;95.10;;;;;;5077244;28;20052;-74
2023/03/03 03:11:13;;;;;;;27.75;15.60;;;4.70;94.90;;;;;;5078121;28;20032;-75
2023/03/03 03:13:39;;;;;;;14.80;7.85;;;4.70;94.80;;;;;;5071631;28;20059;-74
2023/03/03 03:16:05;;;;;;;22.73;11.50;;;4.80;95.10;;;;;;5067783;28;20033;-74
2023/03/03 03:18:31;;;;;;;25.65;13.80;;;4.80;95.30;;;;;;5075858;28;20107;-74
2023/03/03 03:20:56;;;;;;;32.05;17.77;;;4.80;95.30;;;;;;5070812;28;20394;-74
2023/03/03 03:23:22;;;;;;;29.08;15.73;;;4.80;95.00;;;;;;5075801;28;20509;-73
2023/03/03 03:25:48;;;;;;;31.65;16.73;;;4.70;94.90;;;;;;5067777;28;20058;-74
2023/03/03 03:28:17;;;;;;;32.83;17.58;;;4.70;95.10;;;;;;5075733;28;20032;-75
2023/03/03 03:30:44;;;;;;;33.30;19.38;;;4.60;94.90;;;;;;5069902;28;20027;-73
2023/03/03 03:33:10;;;;;;;36.03;18.38;;;4.60;94.80;;;;;;5075903;28;20032;-74
2023/03/03 03:35:39;;;;;;;35.60;18.05;;;4.60;94.70;;;;;;5073606;28;20032;-75
2023/03/03 03:38:05;;;;;;;23.40;13.82;;;4.60;94.80;;;;;;5073674;28;20862;-74
2023/03/03 03:40:31;;;;;;;35.88;19.55;;;4.70;94.90;;;;;;5075156;28;20032;-74
2023/03/03 03:42:56;;;;;;;20.38;11.38;;;4.70;94.70;;;;;;5073265;28;20467;-75
2023/03/03 03:45:22;;;;;;;38.33;20.80;;;4.70;94.80;;;;;;5074965;28;20103;-75
2023/03/03 03:47:49;;;;;;;27.65;16.45;;;4.80;94.70;;;;;;5076959;28;20056;-75
2023/03/03 03:50:14;;;;;;;41.10;22.40;;;4.80;94.70;;;;;;5071803;28;20036;-75
2023/03/03 03:52:40;;;;;;;35.05;17.25;;;4.80;94.90;;;;;;5071905;28;20501;-74
2023/03/03 03:55:06;;;;;;;22.52;12.60;;;4.70;94.80;;;;;;5073385;28;20031;-75
2023/03/03 03:57:31;;;;;;;45.70;23.95;;;4.70;95.00;;;;;;5075902;28;20031;-75
2023/03/03 03:59:59;;;;;;;41.53;21.88;;;4.70;94.90;;;;;;5080773;28;20023;-74
2023/03/03 04:02:25;;;;;;;41.63;23.02;;;4.70;95.00;;;;;;5079606;28;20032;-75
2023/03/03 04:04:50;;;;;;;36.15;19.20;;;4.70;94.90;;;;;;5075184;28;20520;-76
2023/03/03 04:07:16;;;;;;;45.33;23.13;;;4.70;94.90;;;;;;5069240;28;20040;-75
2023/03/03 04:09:42;;;;;;;46.50;25.13;;;4.70;94.80;;;;;;5071250;28;21689;-74
2023/03/03 04:12:07;;;;;;;45.92;23.17;;;4.70;94.70;;;;;;5073548;28;20106;-74
2023/03/03 04:14:34;;;;;;;42.00;19.83;;;4.70;94.60;;;;;;5077552;28;20126;-74
2023/03/03 04:17:00;;;;;;;27.73;14.20;;;4.80;94.80;;;;;;5069579;28;20051;-75
2023/03/03 04:19:25;;;;;;;39.63;18.88;;;4.80;94.90;;;;;;5078074;28;20040;-76
2023/03/03 04:21:51;;;;;;;42.15;22.90;;;4.80;95.00;;;;;;5067041;28;20842;-76
2023/03/03 04:24:18;;;;;;;27.95;14.38;;;4.90;95.20;;;;;;5076813;28;20024;-74
2023/03/03 04:26:44;;;;;;;21.98;10.77;;;4.90;95.10;;;;;;5069237;28;20032;-74
2023/03/03 04:29:09;;;;;;;34.55;15.77;;;4.90;95.10;;;;;;5071471;28;20047;-74
2023/03/03 04:31:35;;;;;;;34.40;17.90;;;4.90;95.10;;;;;;5069454;28;20542;-74
2023/03/03 04:34:01;;;;;;;31.75;15.75;;;4.90;95.30;;;;;;5070778;28;20058;-75
2023/03/03 04:36:26;;;;;;;34.75;16.63;;;4.80;95.00;;;;;;5070359;28;20452;-73
2023/03/03 04:38:52;;;;;;;36.25;18.23;;;4.80;94.80;;;;;;5071309;28;20024;-74
2023/03/03 04:41:18;;;;;;;48.13;23.17;;;4.80;94.80;;;;;;5072658;28;20471;-74
2023/03/03 04:43:43;;;;;;;46.00;21.75;;;4.80;94.60;;;;;;5071881;28;20052;-75
2023/03/03 04:46:09;;;;;;;29.25;15.45;;;4.80;94.40;;;;;;5075654;28;20032;-73
2023/03/03 04:48:34;;;;;;;16.02;7.50;;;4.90;94.50;;;;;;5076192;28;20089;-76
2023/03/03 04:51:00;;;;;;;31.80;15.70;;;4.90;95.10;;;;;;5067953;28;20029;-75
2023/03/03 04:53:26;;;;;;;33.65;17.70;;;4.90;95.20;;;;;;5070385;28;20140;-74
2023/03/03 04:55:52;;;;;;;37.67;18.48;;;4.80;95.20;;;;;;5071606;28;20066;-75
2023/03/03 04:58:19;;;;;;;27.08;13.15;;;4.90;95.20;;;;;;5071993;28;20024;-75
2023/03/03 05:00:53;;;;;;;31.98;16.45;;;5.00;95.30;;;;;;5075665;28;20027;-76
2023/03/03 05:03:19;;;;;;;33.88;18.17;;;4.90;95.10;;;;;;5079654;28;20036;-74
2023/03/03 05:05:46;;;;;;;26.67;14.95;;;5.00;95.00;;;;;;5075902;28;20028;-75
2023/03/03 05:08:12;;;;;;;35.75;18.27;;;5.00;94.80;;;;;;5072505;28;20059;-74
2023/03/03 05:10:38;;;;;;;35.78;18.77;;;5.00;94.70;;;;;;5075403;28;20021;-75
2023/03/03 05:13:04;;;;;;;27.20;14.18;;;5.00;94.50;;;;;;5076668;28;20180;-75
2023/03/03 05:15:31;;;;;;;44.85;22.17;;;5.10;94.50;;;;;;5073956;28;20795;-74
2023/03/03 05:17:57;;;;;;;45.90;22.98;;;5.10;94.40;;;;;;5068894;28;20086;-75
2023/03/03 05:20:23;;;;;;;51.55;26.00;;;5.00;94.30;;;;;;5073996;28;20047;-74
2023/03/03 05:22:50;;;;;;;36.17;18.63;;;5.00;94.20;;;;;;5077359;28;20024;-75
2023/03/03 05:25:16;;;;;;;46.50;23.52;;;5.00;94.20;;;;;;5080456;28;20043;-75
2023/03/03 05:27:42;;;;;;;41.55;20.83;;;5.00;94.40;;;;;;5075604;28;20037;-74
2023/03/03 05:30:09;;;;;;;38.60;19.95;;;5.00;94.30;;;;;;5078816;28;20166;-74
2023/03/03 05:32:35;;;;;;;11.63;6.47;;;5.10;94.60;;;;;;5077422;28;20077;-75
2023/03/03 05:35:01;;;;;;;40.90;20.88;;;5.10;95.00;;;;;;5083698;28;20024;-75
2023/03/03 05:37:27;;;;;;;37.10;18.55;;;5.00;94.70;;;;;;5079032;28;20021;-75
2023/03/03 05:39:52;;;;;;;34.92;18.95;;;5.00;94.50;;;;;;5079210;28;20371;-74
2023/03/03 05:42:18;;;;;;;25.35;12.27;;;4.90;94.50;;;;;;5074227;28;20020;-76
2023/03/03 05:44:44;;;;;;;26.40;12.70;;;5.00;94.60;;;;;;5077395;28;20122;-75
2023/03/03 05:47:09;;;;;;;24.88;12.88;;;5.00;95.00;;;;;;5078263;28;20029;-75
2023/03/03 05:49:35;;;;;;;11.93;5.75;;;5.00;95.00;;;;;;5078122;28;20029;-75
2023/03/03 05:52:01;;;;;;;19.58;9.70;;;5.00;95.30;;;;;;5075893;28;20032;-75
2023/03/03 05:54:26;;;;;;;9.95;4.30;;;4.90;95.20;;;;;;5078083;28;20021;-74
2023/03/03 05:56:52;;;;;;;13.05;6.78;;;5.00;95.70;;;;;;5075809;28;20028;-76
2023/03/03 05:59:18;;;;;;;24.58;12.40;;;4.90;95.60;;;;;;5078447;28;20117;-75
2023/03/03 06:01:44;;;;;;;26.17;13.10;;;4.90;95.80;;;;;;5079844;28;20024;-74
2023/03/03 06:04:10;;;;;;;14.20;6.35;;;4.70;95.40;;;;;;5070662;28;20059;-73
2023/03/03 06:06:36;;;;;;;27.08;14.25;;;4.80;95.70;;;;;;5071150;28;20403;-75
2023/03/03 06:09:02;;;;;;;26.88;13.45;;;4.80;95.60;;;;;;5074689;28;20048;-75
2023/03/03 06:11:28;;;;;;;34.65;17.60;;;4.80;95.40;;;;;;5075957;28;20023;-75
2023/03/03 06:13:53;;;;;;;31.63;15.15;;;4.90;95.20;;;;;;5077073;28;20028;-75
2023/03/03 06:16:19;;;;;;;15.55;7.28;;;4.80;95.20;;;;;;5074836;28;20105;-75
2023/03/03 06:18:45;;;;;;;33.00;17.67;;;4.80;95.30;;;;;;5075278;28;20033;-75
2023/03/03 06:21:10;;;;;;;34.83;16.27;;;4.80;95.20;;;;;;5077737;28;20099;-74
2023/03/03 06:23:36;;;;;;;27.73;14.30;;;4.80;95.10;;;;;;5079489;28;20024;-76
2023/03/03 06:26:02;;;;;;;37.17;19.23;;;4.80;95.20;;;;;;5077659;28;20078;-75
2023/03/03 06:28:27;;;;;;;19.08;10.57;;;4.70;95.20;;;;;;5078371;28;20052;-74
2023/03/03 06:30:56;;;;;;;32.03;16.00;;;4.70;95.60;;;;;;5080492;28;20078;-74
2023/03/03 06:33:22;;;;;;;24.80;11.60;;;4.70;95.60;;;;;;5075682;28;20068;-74
2023/03/03 06:35:52;;;;;;;37.67;18.00;;;4.70;95.70;;;;;;5072686;28;20024;-75
2023/03/03 06:38:19;;;;;;;28.63;13.50;;;4.70;95.60;;;;;;5071892;28;20048;-74
2023/03/03 06:40:46;;;;;;;38.30;19.02;;;4.70;95.70;;;;;;5078830;28;20099;-75
2023/03/03 06:43:12;;;;;;;39.08;17.55;;;4.70;95.40;;;;;;5075552;28;20062;-74
2023/03/03 06:45:38;;;;;;;35.50;17.05;;;4.70;95.30;;;;;;5082687;28;20024;-76
2023/03/03 06:48:04;;;;;;;39.45;18.80;;;4.80;95.20;;;;;;5077347;28;20118;-74
2023/03/03 06:50:30;;;;;;;32.20;15.43;;;4.80;95.30;;;;;;5073528;28;20021;-75
2023/03/03 06:53:09;;;;;;;37.88;18.52;;;4.80;95.40;;;;;;5073756;28;20110;-74
2023/03/03 06:55:35;;;;;;;27.27;14.00;;;4.70;95.40;;;;;;5073802;28;20039;-75
2023/03/03 06:58:01;;;;;;;36.60;17.92;;;4.70;95.40;;;;;;5071846;28;20032;-75
2023/03/03 07:00:27;;;;;;;35.95;17.42;;;4.80;95.60;;;;;;5073909;28;20051;-74
2023/03/03 07:02:59;;;;;;;30.65;14.63;;;4.80;95.60;;;;;;5076834;28;20056;-74
2023/03/03 07:05:27;;;;;;;37.42;20.48;;;4.80;95.60;;;;;;5071628;28;20035;-75
2023/03/03 07:07:54;;;;;;;35.15;18.13;;;4.80;95.50;;;;;;5072555;28;20052;-76
2023/03/03 07:10:24;;;;;;;27.13;14.45;;;4.80;95.50;;;;;;5077899;28;20072;-75
2023/03/03 07:12:50;;;;;;;32.75;17.27;;;4.80;95.60;;;;;;5079492;28;20425;-75
2023/03/03 07:15:27;;;;;;;21.42;10.43;;;4.80;95.50;;;;;;5076802;28;20032;-75
2023/03/03 07:17:57;;;;;;;19.63;8.70;;;4.80;96.50;;;;;;5077246;28;20024;-75
2023/03/03 07:20:34;;;;;;;24.95;11.98;;;4.80;96.80;;;;;;5074682;28;20019;-75
2023/03/03 07:23:07;;;;;;;28.73;13.25;;;4.80;97.00;;;;;;5075252;28;20036;-75
2023/03/03 07:25:36;;;;;;;20.67;11.10;;;4.70;96.60;;;;;;5076583;28;20099;-76
2023/03/03 07:28:24;;;;;;;22.92;10.90;;;4.80;96.40;;;;;;5071611;28;20036;-76
2023/03/03 07:30:54;;;;;;;25.08;11.38;;;4.80;96.60;;;;;;5073982;28;20459;-76
2023/03/03 07:33:36;;;;;;;22.80;10.98;;;4.90;96.40;;;;;;5080184;28;20038;-74
2023/03/03 07:36:05;;;;;;;23.00;12.00;;;4.90;96.50;;;;;;5074413;28;20031;-75
2023/03/03 07:38:38;;;;;;;22.20;11.20;;;4.90;96.30;;;;;;5078011;28;20040;-75
2023/03/03 07:41:16;;;;;;;21.00;11.48;;;5.00;96.20;;;;;;5074637;28;20095;-75
2023/03/03 07:43:53;;;;;;;23.98;11.30;;;5.00;96.00;;;;;;5080977;28;20081;-75
2023/03/03 07:46:28;;;;;;;20.02;10.45;;;5.00;96.00;;;;;;5078425;28;20031;-74
2023/03/03 07:48:56;;;;;;;12.15;6.85;;;5.20;96.30;;;;;;5075225;28;20035;-76
2023/03/03 07:51:52;;;;;;;15.40;6.95;;;5.20;96.40;;;;;;5072024;28;20024;-75
2023/03/03 07:54:39;;;;;;;15.32;6.03;;;5.20;97.00;;;;;;5074922;28;20068;-75
2023/03/03 07:57:11;;;;;;;20.10;10.15;;;5.20;97.20;;;;;;5077923;28;20398;-74
2023/03/03 07:59:48;;;;;;;19.73;9.10;;;5.20;96.90;;;;;;5076253;28;20500;-75
2023/03/03 08:02:31;;;;;;;17.48;9.20;;;5.20;96.60;;;;;;5074817;28;20058;-77
2023/03/03 08:04:58;;;;;;;14.70;7.10;;;5.30;96.70;;;;;;5075592;28;20385;-74
2023/03/03 08:07:23;;;;;;;18.30;9.63;;;5.30;96.60;;;;;;5072550;28;20063;-75
2023/03/03 08:09:57;;;;;;;11.93;4.95;;;5.20;96.50;;;;;;5080525;28;20024;-74
2023/03/03 08:12:33;;;;;;;13.70;6.07;;;5.30;97.20;;;;;;5077145;28;20035;-74
2023/03/03 08:15:35;;;;;;;16.42;7.20;;;5.30;97.10;;;;;;5076031;28;20093;-74
2023/03/03 08:18:34;;;;;;;20.98;10.18;;;5.40;96.90;;;;;;5034916;28;20322;-73
2023/03/03 08:21:03;;;;;;;11.63;6.15;;;5.40;96.50;;;;;;5072457;28;20101;-74
2023/03/03 08:23:29;;;;;;;19.17;9.30;;;5.50;96.40;;;;;;5076712;28;20028;-74
2023/03/03 08:25:54;;;;;;;20.17;9.05;;;5.40;96.20;;;;;;5077191;28;20070;-75
2023/03/03 08:28:21;;;;;;;18.05;10.13;;;5.60;96.50;;;;;;5078239;28;20113;-75
2023/03/03 08:30:47;;;;;;;17.65;8.65;;;5.50;96.00;;;;;;5077147;28;20022;-74
2023/03/03 08:33:14;;;;;;;13.18;5.95;;;5.60;96.10;;;;;;5078319;28;20054;-75
2023/03/03 08:35:42;;;;;;;14.30;4.88;;;5.60;96.20;;;;;;5075313;28;20103;-75
2023/03/03 08:38:09;;;;;;;17.80;7.93;;;5.70;96.70;;;;;;5074573;28;20055;-75
2023/03/03 08:40:35;;;;;;;15.52;8.82;;;5.70;96.30;;;;;;5076499;28;20031;-75
2023/03/03 08:43:01;;;;;;;14.43;7.50;;;5.70;95.70;;;;;;5075629;28;20101;-74
2023/03/03 08:45:27;;;;;;;15.23;7.32;;;5.70;95.70;;;;;;5079252;28;20478;-75
2023/03/03 08:47:53;;;;;;;11.93;4.05;;;5.80;95.80;;;;;;5075750;28;20032;-74
2023/03/03 08:50:19;;;;;;;15.75;5.90;;;5.80;96.20;;;;;;5077759;28;20028;-74
2023/03/03 08:52:46;;;;;;;11.18;5.07;;;5.80;96.00;;;;;;5075466;28;20037;-79
2023/03/03 08:55:12;;;;;;;15.02;8.80;;;5.70;95.90;;;;;;5075816;28;20020;-75
2023/03/03 08:57:39;;;;;;;16.27;8.90;;;5.70;96.00;;;;;;5077725;28;20029;-74
2023/03/03 09:00:11;;;;;;;16.45;7.90;;;5.70;95.50;;;;;;5081178;28;20035;-75
2023/03/03 09:02:38;;;;;;;21.70;9.70;;;5.70;95.40;;;;;;5074756;28;20020;-76
2023/03/03 09:05:05;;;;;;;23.17;12.60;;;5.70;95.10;;;;;;5075056;28;20025;-75
2023/03/03 09:07:30;;;;;;;16.40;7.45;;;5.90;95.00;;;;;;5070518;28;20052;-75
2023/03/03 09:09:56;;;;;;;15.20;7.53;;;6.00;95.20;;;;;;5073338;28;20478;-74
2023/03/03 09:12:33;;;;;;;16.67;8.48;;;6.10;95.40;;;;;;5074566;28;20031;-75
2023/03/03 09:15:07;;;;;;;18.80;8.93;;;6.10;95.20;;;;;;5076253;28;20174;-75
2023/03/03 09:17:36;;;;;;;17.92;9.85;;;6.10;94.90;;;;;;5077972;28;20047;-74
2023/03/03 09:20:21;;;;;;;20.40;10.50;;;6.10;94.50;;;;;;5077042;28;20025;-75
2023/03/03 09:22:49;;;;;;;13.05;6.53;;;6.20;94.10;;;;;;5078145;28;20020;-75
2023/03/03 09:25:36;;;;;;;10.10;5.43;;;6.40;94.50;;;;;;5075862;28;20024;-73
2023/03/03 09:28:02;;;;;;;13.65;7.78;;;6.40;94.40;;;;;;5082509;28;20032;-75
2023/03/03 09:30:38;;;;;;;9.73;4.72;;;6.50;93.40;;;;;;5086639;28;20355;-75
2023/03/03 09:33:43;;;;;;;7.88;3.75;;;6.70;93.70;;;;;;5080223;28;20119;-75
2023/03/03 09:36:20;;;;;;;8.65;4.90;;;6.80;93.80;;;;;;5081097;28;20046;-75
2023/03/03 09:38:47;;;;;;;8.90;4.20;;;6.90;93.30;;;;;;5078546;28;20059;-75
2023/03/03 09:41:42;;;;;;;12.73;6.30;;;7.00;93.10;;;;;;5077413;28;20039;-75
2023/03/03 09:44:42;;;;;;;7.30;4.20;;;7.10;92.80;;;;;;5061731;28;20043;-75
2023/03/03 09:47:23;;;;;;;12.23;5.45;;;7.10;93.10;;;;;;5070026;28;20045;-75
2023/03/03 09:50:19;;;;;;;15.85;7.30;;;7.10;91.60;;;;;;5080148;28;20043;-75
2023/03/03 09:53:04;;;;;;;8.30;5.32;;;7.00;91.40;;;;;;5079497;28;20039;-75
2023/03/03 09:55:29;;;;;;;5.82;3.13;;;7.00;91.80;;;;;;5084182;28;20145;-74
2023/03/03 09:58:16;;;;;;;12.88;6.05;;;7.20;92.70;;;;;;5078678;28;20029;-75
2023/03/03 10:00:58;;;;;;;8.65;4.88;;;7.20;91.40;;;;;;5077914;28;20028;-74
2023/03/03 10:03:24;;;;;;;11.25;5.78;;;7.30;91.50;;;;;;5079351;28;20047;-74
2023/03/03 10:06:14;;;;;;;9.50;3.72;;;7.60;91.20;;;;;;5077534;28;20075;-75
2023/03/03 10:08:41;;;;;;;;;;;8.10;91.70;;;;;;5082661;28;20102;-75
2023/03/03 10:11:09;;;;;;;8.95;5.57;;;8.50;90.90;;;;;;5077481;28;20007;-75
2023/03/03 10:13:56;;;;;;;8.70;4.25;;;8.70;88.00;;;;;;5076502;28;20035;-74
2023/03/03 10:16:37;;;;;;;11.48;5.60;;;8.90;86.40;;;;;;5076584;28;20505;-75
2023/03/03 10:19:27;;;;;;;6.28;2.60;;;9.10;85.00;;;;;;5081928;28;20048;-74
2023/03/03 10:22:23;;;;;;;9.02;5.10;;;9.10;90.30;;;;;;5080854;28;20521;-74
2023/03/03 10:25:04;;;;;;;6.03;2.53;;;9.10;86.40;;;;;;5078009;28;20723;-75
2023/03/03 10:27:32;;;;;;;10.02;4.78;;;9.20;90.10;;;;;;5073517;28;20032;-74
2023/03/03 10:30:15;;;;;;;8.50;3.30;;;9.30;87.10;;;;;;5079995;28;20028;-76
2023/03/03 10:32:51;;;;;;;10.10;5.53;;;9.30;89.70;;;;;;5080530;28;20086;-73
2023/03/03 10:35:28;;;;;;;8.35;4.57;;;9.50;87.50;;;;;;5074982;28;20040;-73
2023/03/03 10:38:04;;;;;;;9.48;5.15;;;9.60;87.90;;;;;;5077106;28;20035;-72
2023/03/03 10:40:53;;;;;;;10.80;5.35;;;9.70;87.30;;;;;;5079572;28;20041;-76
2023/03/03 10:43:28;;;;;;;10.52;5.03;;;9.70;84.70;;;;;;5078054;28;20024;-73
2023/03/03 10:46:31;;;;;;;8.82;4.35;;;9.60;82.30;;;;;;5078609;28;20032;-73
2023/03/03 10:49:16;;;;;;;9.60;5.32;;;9.60;82.20;;;;;;5077794;28;20036;-73
2023/03/03 10:51:51;;;;;;;8.68;5.40;;;9.50;84.00;;;;;;5074664;28;20027;-72
2023/03/03 10:54:36;;;;;;;9.40;4.22;;;9.50;82.20;;;;;;5076136;28;20040;-74
2023/03/03 10:57:12;;;;;;;10.20;5.60;;;9.40;86.60;;;;;;5070229;28;20020;-73
2023/03/03 11:00:03;;;;;;;10.68;5.50;;;9.40;85.80;;;;;;5084498;28;20027;-75
2023/03/03 11:02:37;;;;;;;8.52;4.10;;;9.40;84.00;;;;;;5081156;28;20131;-73
2023/03/03 11:05:28;;;;;;;6.97;4.10;;;9.50;84.90;;;;;;5080304;28;20292;-73
2023/03/03 11:08:04;;;;;;;9.57;4.85;;;9.60;81.20;;;;;;5077047;28;20055;-74
2023/03/03 11:10:57;;;;;;;9.38;4.03;;;9.80;79.20;;;;;;5076907;28;20058;-73
2023/03/03 11:13:41;;;;;;;7.90;4.45;;;10.10;78.70;;;;;;5080059;28;20033;-74
2023/03/03 11:16:49;;;;;;;5.32;3.00;;;10.40;79.90;;;;;;5077470;28;20016;-73
2023/03/03 11:19:35;;;;;;;7.90;4.45;;;10.80;83.90;;;;;;5076154;28;20036;-73
2023/03/03 11:22:04;;;;;;;8.05;3.17;;;11.10;82.20;;;;;;5080832;28;20488;-74
2023/03/03 11:25:07;;;;;;;7.38;3.63;;;11.20;79.20;;;;;;5073604;28;20024;-74
2023/03/03 11:28:16;;;;;;;9.65;3.30;;;11.10;79.10;;;;;;5074142;28;20025;-74
2023/03/03 11:30:50;;;;;;;6.18;3.25;;;11.00;84.90;;;;;;5073268;28;20031;-73
2023/03/03 11:33:50;;;;;;;6.80;2.78;;;11.00;76.90;;;;;;5071611;28;20070;-72
2023/03/03 11:36:48;;;;;;;10.02;2.88;;;11.30;79.20;;;;;;5078857;28;20028;-74
2023/03/03 11:39:19;;;;;;;9.00;3.25;;;11.70;85.40;;;;;;5080370;28;20044;-73
2023/03/03 11:42:02;;;;;;;7.30;3.70;;;12.00;72.30;;;;;;5073315;28;20033;-73
2023/03/03 11:44:39;;;;;;;6.35;2.80;;;12.30;70.10;;;;;;5077096;28;20024;-72
2023/03/03 11:47:20;;;;;;;5.00;2.20;;;12.60;68.80;;;;;;5072125;28;20043;-73
2023/03/03 11:50:16;;;;;;;7.07;3.10;;;12.90;68.40;;;;;;5076414;28;20990;-74
2023/03/03 11:53:30;;;;;;;5.55;2.13;;;13.30;68.80;;;;;;5074701;28;20020;-73
2023/03/03 11:56:03;;;;;;;6.75;2.97;;;13.30;67.00;;;;;;5028181;28;20613;-72
2023/03/03 11:58:45;;;;;;;7.15;3.38;;;13.40;66.00;;;;;;5070715;28;20028;-74
2023/03/03 12:01:17;;;;;;;7.78;3.58;;;13.40;61.80;;;;;;5070914;28;20103;-74
2023/03/03 12:03:56;;;;;;;6.93;3.00;;;13.50;61.70;;;;;;5078348;28;20628;-74
2023/03/03 12:06:28;;;;;;;6.45;3.03;;;13.80;62.10;;;;;;5075367;28;20055;-73
2023/03/03 12:09:21;;;;;;;3.75;1.40;;;14.10;61.60;;;;;;5076009;28;20036;-72
2023/03/03 12:11:58;;;;;;;3.53;1.30;;;14.50;83.40;;;;;;5074980;28;20024;-75
2023/03/03 12:14:31;;;;;;;5.15;2.47;;;14.50;86.20;;;;;;5080803;28;20043;-74
2023/03/03 12:17:05;;;;;;;6.10;2.20;;;14.20;74.10;;;;;;5076391;28;20046;-74
2023/03/03 12:20:07;;;;;;;6.47;2.45;;;13.90;78.30;;;;;;5070774;28;20055;-74
2023/03/03 12:22:53;;;;;;;4.60;2.33;;;13.60;67.70;;;;;;5078124;28;20028;-73
2023/03/03 12:25:25;;;;;;;7.05;2.78;;;13.70;74.70;;;;;;5077448;28;20166;-73
2023/03/03 12:27:54;;;;;;;4.85;2.33;;;13.80;68.10;;;;;;5076467;28;20096;-73
2023/03/03 12:30:56;;;;;;;7.05;2.72;;;13.90;65.10;;;;;;5071424;28;20028;-71
2023/03/03 12:33:39;;;;;;;5.13;1.23;;;14.10;65.60;;;;;;5072992;28;20518;-72
2023/03/03 12:36:25;;;;;;;5.00;2.22;;;14.50;78.90;;;;;;5073952;28;20032;-73
2023/03/03 12:39:09;;;;;;;4.68;2.03;;;14.80;66.90;;;;;;5073390;28;20020;-73
2023/03/03 12:41:50;;;;;;;6.72;2.60;;;14.90;87.50;;;;;;5071895;28;20024;-73
2023/03/03 12:44:28;;;;;;;2.53;1.27;;;14.70;85.80;;;;;;5076830;28;20031;-74
2023/03/03 12:47:14;;;;;;;5.13;1.48;;;14.40;89.80;;;;;;5076431;28;20028;-73
2023/03/03 12:49:46;;;;;;;3.75;1.90;;;14.10;90.70;;;;;;5078751;28;20478;-73
2023/03/03 12:52:32;;;;;;;4.72;2.15;;;13.90;86.00;;;;;;5079211;28;20190;-73
2023/03/03 12:55:02;;;;;;;5.03;2.10;;;13.90;74.30;;;;;;5078235;28;20082;-74
2023/03/03 12:57:46;;;;;;;3.30;1.45;;;13.90;60.80;;;;;;5073217;28;20512;-72
2023/03/03 13:00:30;;;;;;;5.90;1.73;;;14.20;61.00;;;;;;5076870;28;20024;-73
2023/03/03 13:03:22;;;;;;;3.83;1.40;;;14.60;66.50;;;;;;5077874;28;20043;-73
2023/03/03 13:06:00;;;;;;;2.63;1.05;;;15.00;73.10;;;;;;5073056;28;20143;-75
2023/03/03 13:08:36;;;;;;;4.00;1.10;;;15.20;73.40;;;;;;5073082;28;20075;-74
2023/03/03 13:11:42;;;;;;;2.65;1.00;;;15.30;85.50;;;;;;5073273;28;20434;-74
2023/03/03 13:14:21;;;;;;;3.72;1.75;;;15.00;85.40;;;;;;5077892;28;20027;-74